Terminal Aerodrome Forecast
Issued by NWS Charleston, SC

Home | Current Version | Previous Version | Text Only | Print | Product List | Glossary On
Versions: 1 2 3 4 5 6 7 8 9 10 11 12 13 14 15 16
000
FTUS42 KCHS 251834 AAA
TAFCHS
TAF AMD
KCHS 251834Z 2519/2618 23007KT P6SM VCTS SCT035CB BKN050
     FM252000 VRB05KT 5SM -TSRA BR SCT025 BKN040CB
      TEMPO 2520/2523 VRB12G22KT 3SM TSRA BR BKN025CB
     FM260000 19006KT P6SM VCSH SCT040 BKN080
     FM260200 VRB03KT P6SM SCT015 BKN100
     FM261300 03008KT P6SM VCSH SCT025 BKN050=

USA.gov is the U.S. government's official web portal to all federal, state and local government web resources and services.